createdAt,value
2022-12-03T00:00:36.709Z,20.27
2022-12-03T00:03:03.411Z,13.30
2022-12-03T00:05:30.045Z,13.80
2022-12-03T00:07:56.806Z,13.53
2022-12-03T00:10:23.450Z,11.73
2022-12-03T00:12:50.027Z,13.50
2022-12-03T00:15:16.650Z,10.07
2022-12-03T00:17:43.190Z,10.83
2022-12-03T00:20:17.169Z,10.40
2022-12-03T00:22:43.717Z,10.83
2022-12-03T00:25:10.299Z,14.17
2022-12-03T00:27:36.893Z,11.70
2022-12-03T00:30:04.906Z,12.33
2022-12-03T00:32:31.517Z,10.90
2022-12-03T00:34:58.031Z,10.93
2022-12-03T00:37:24.634Z,9.90
2022-12-03T00:39:51.188Z,10.40
2022-12-03T00:42:17.717Z,10.93
2022-12-03T00:44:44.610Z,10.17
2022-12-03T00:47:11.225Z,10.33
2022-12-03T00:49:37.815Z,10.73
2022-12-03T00:52:04.371Z,9.97
2022-12-03T00:54:32.309Z,9.57
2022-12-03T00:56:59.413Z,10.47
2022-12-03T00:59:25.985Z,10.43
2022-12-03T01:01:52.713Z,10.53
2022-12-03T01:04:19.522Z,12.50
2022-12-03T01:06:46.222Z,11.33
2022-12-03T01:09:12.734Z,11.53
2022-12-03T01:11:39.409Z,11.70
2022-12-03T01:14:07.446Z,12.47
2022-12-03T01:16:34.622Z,12.63
2022-12-03T01:19:01.487Z,11.47
2022-12-03T01:21:28.090Z,12.10
2022-12-03T01:23:54.644Z,12.97
2022-12-03T01:26:21.293Z,13.23
2022-12-03T01:28:47.881Z,12.93
2022-12-03T01:31:33.251Z,12.73
2022-12-03T01:33:59.857Z,12.60
2022-12-03T01:36:26.733Z,11.90
2022-12-03T01:38:53.305Z,12.00
2022-12-03T01:41:21.116Z,12.53
2022-12-03T01:43:48.836Z,10.70
2022-12-03T01:46:20.090Z,14.17
2022-12-03T01:48:48.407Z,11.23
2022-12-03T01:51:15.690Z,11.67
2022-12-03T01:53:44.197Z,13.47
2022-12-03T01:56:19.813Z,11.53
2022-12-03T01:58:47.152Z,11.17
2022-12-03T02:01:17.142Z,12.03
2022-12-03T02:03:45.203Z,12.03
2022-12-03T02:06:25.042Z,9.53
2022-12-03T02:08:58.705Z,11.37
2022-12-03T02:11:31.295Z,10.87
2022-12-03T02:14:03.237Z,12.13
2022-12-03T02:16:30.987Z,11.00
2022-12-03T02:18:58.510Z,11.87
2022-12-03T02:21:43.576Z,10.83
2022-12-03T02:24:24.106Z,9.60
2022-12-03T02:26:50.953Z,10.30
2022-12-03T02:29:17.545Z,11.50
2022-12-03T02:31:44.230Z,9.83
2022-12-03T02:34:11.729Z,10.17
2022-12-03T02:36:39.229Z,11.00
2022-12-03T02:39:06.162Z,10.73
2022-12-03T02:41:51.544Z,9.30
2022-12-03T02:44:18.243Z,11.00
2022-12-03T02:46:44.918Z,12.03
2022-12-03T02:49:11.659Z,10.37
2022-12-03T02:51:38.276Z,10.63
2022-12-03T02:54:05.137Z,10.77
2022-12-03T02:56:33.110Z,8.77
2022-12-03T02:59:03.161Z,10.13
2022-12-03T03:01:30.044Z,9.77
2022-12-03T03:03:57.460Z,10.57
2022-12-03T03:06:24.486Z,11.13
2022-12-03T03:08:51.332Z,10.70
2022-12-03T03:11:18.047Z,11.53
2022-12-03T03:13:44.619Z,11.60
2022-12-03T03:16:11.320Z,12.30
2022-12-03T03:18:38.144Z,12.30
2022-12-03T03:21:05.247Z,12.90
2022-12-03T03:23:32.294Z,13.87
2022-12-03T03:26:11.433Z,13.63
2022-12-03T03:28:44.797Z,13.90
2022-12-03T03:31:14.000Z,13.70
2022-12-03T03:33:43.698Z,12.87
2022-12-03T03:36:10.518Z,13.00
2022-12-03T03:38:38.131Z,13.20
2022-12-03T03:41:07.131Z,12.87
2022-12-03T03:43:35.674Z,13.10
2022-12-03T03:46:04.830Z,12.40
2022-12-03T03:48:34.167Z,12.90
2022-12-03T03:51:03.635Z,11.90
2022-12-03T03:53:31.007Z,11.37
2022-12-03T03:55:57.737Z,11.50
2022-12-03T03:58:24.316Z,11.27
2022-12-03T04:00:51.824Z,9.93
2022-12-03T04:03:18.547Z,10.10
2022-12-03T04:05:45.134Z,11.83
2022-12-03T04:08:11.905Z,10.67
2022-12-03T04:10:56.790Z,11.77
2022-12-03T04:13:23.320Z,12.50
2022-12-03T04:15:50.019Z,11.50
2022-12-03T04:18:35.230Z,10.67
2022-12-03T04:21:20.253Z,12.37
2022-12-03T04:23:46.807Z,11.37
2022-12-03T04:26:31.934Z,10.83
2022-12-03T04:28:58.654Z,12.17
2022-12-03T04:31:43.736Z,12.40
2022-12-03T04:34:29.584Z,9.73
2022-12-03T04:36:56.131Z,10.13
2022-12-03T04:39:22.955Z,10.90
2022-12-03T04:41:49.533Z,11.37
2022-12-03T04:44:33.869Z,11.97
2022-12-03T04:47:01.322Z,11.53
2022-12-03T04:49:27.847Z,11.87
2022-12-03T04:51:54.464Z,11.43
2022-12-03T04:54:21.062Z,10.27
2022-12-03T04:56:47.697Z,10.87
2022-12-03T04:59:16.527Z,11.63
2022-12-03T05:01:44.070Z,12.80
2022-12-03T05:04:11.259Z,12.67
2022-12-03T05:06:38.043Z,11.67
2022-12-03T05:09:05.397Z,12.17
2022-12-03T05:11:31.973Z,12.80
2022-12-03T05:13:58.591Z,12.30
2022-12-03T05:16:25.498Z,11.47
2022-12-03T05:18:52.104Z,12.47
2022-12-03T05:21:18.669Z,12.60
2022-12-03T05:23:45.229Z,13.20
2022-12-03T05:26:12.380Z,11.30
2022-12-03T05:28:38.928Z,11.70
2022-12-03T05:31:06.154Z,11.33
2022-12-03T05:33:33.107Z,11.97
2022-12-03T05:35:59.877Z,12.03
2022-12-03T05:38:26.444Z,12.03
2022-12-03T05:40:52.998Z,11.67
2022-12-03T05:43:19.585Z,9.87
2022-12-03T05:46:01.318Z,11.27
2022-12-03T05:48:27.877Z,11.70
2022-12-03T05:50:54.446Z,11.43
2022-12-03T05:53:21.054Z,11.63
2022-12-03T05:55:47.709Z,12.47
2022-12-03T05:58:14.272Z,11.50
2022-12-03T06:00:43.073Z,12.10
2022-12-03T06:03:10.541Z,12.73
2022-12-03T06:05:37.338Z,13.77
2022-12-03T06:08:04.434Z,13.87
2022-12-03T06:10:31.088Z,13.73
2022-12-03T06:12:57.850Z,12.27
2022-12-03T06:15:24.993Z,12.53
2022-12-03T06:17:51.585Z,13.23
2022-12-03T06:20:20.017Z,13.67
2022-12-03T06:22:47.664Z,14.43
2022-12-03T06:25:15.342Z,13.43
2022-12-03T06:27:42.830Z,14.00
2022-12-03T06:30:12.764Z,12.40
2022-12-03T06:32:39.397Z,13.07
2022-12-03T06:35:06.280Z,13.13
2022-12-03T06:37:32.825Z,13.10
2022-12-03T06:39:59.414Z,12.37
2022-12-03T06:42:25.946Z,13.87
2022-12-03T06:44:53.163Z,14.10
2022-12-03T06:47:19.935Z,14.83
2022-12-03T06:49:46.515Z,15.87
2022-12-03T06:52:13.089Z,13.17
2022-12-03T06:54:39.629Z,13.93
2022-12-03T06:57:06.217Z,12.50
2022-12-03T06:59:34.230Z,14.37
2022-12-03T07:02:01.163Z,14.97
2022-12-03T07:04:27.878Z,14.37
2022-12-03T07:06:54.451Z,15.97
2022-12-03T07:09:20.971Z,15.63
2022-12-03T07:11:47.514Z,15.97
2022-12-03T07:14:14.204Z,13.77
2022-12-03T07:16:43.295Z,14.80
2022-12-03T07:19:10.671Z,14.83
2022-12-03T07:21:37.659Z,15.40
2022-12-03T07:24:04.404Z,16.37
2022-12-03T07:26:31.157Z,17.23
2022-12-03T07:28:57.892Z,19.80
2022-12-03T07:31:24.707Z,15.87
2022-12-03T07:33:51.412Z,15.60
2022-12-03T07:36:18.152Z,15.90
2022-12-03T07:38:45.028Z,14.00
2022-12-03T07:41:11.637Z,15.17
2022-12-03T07:43:38.205Z,13.50
2022-12-03T07:46:04.930Z,13.77
2022-12-03T07:48:31.454Z,13.93
2022-12-03T07:50:58.201Z,14.10
2022-12-03T07:53:24.958Z,15.37
2022-12-03T07:55:51.524Z,16.47
2022-12-03T07:58:18.069Z,15.90
2022-12-03T08:00:44.654Z,16.60
2022-12-03T08:03:11.197Z,17.60
2022-12-03T08:05:37.730Z,15.33
2022-12-03T08:08:04.474Z,18.57
2022-12-03T08:10:31.175Z,18.13
2022-12-03T08:12:59.326Z,18.97
2022-12-03T08:15:31.138Z,18.70
2022-12-03T08:18:07.976Z,17.97
2022-12-03T08:20:39.773Z,15.33
2022-12-03T08:23:17.992Z,12.77
2022-12-03T08:25:45.418Z,14.73
2022-12-03T08:28:16.117Z,11.90
2022-12-03T08:30:44.585Z,13.00
2022-12-03T08:33:21.850Z,12.60
2022-12-03T08:35:50.951Z,10.00
2022-12-03T08:38:21.049Z,10.87
2022-12-03T08:40:51.042Z,10.67
2022-12-03T08:43:26.050Z,10.77
2022-12-03T08:45:55.195Z,11.93
2022-12-03T08:48:26.866Z,12.77
2022-12-03T08:51:26.666Z,12.20
2022-12-03T08:54:04.164Z,12.57
2022-12-03T08:56:36.049Z,13.03
2022-12-03T08:59:27.070Z,13.70
2022-12-03T09:01:55.151Z,12.80
2022-12-03T09:04:26.819Z,12.50
2022-12-03T09:06:54.486Z,12.93
2022-12-03T09:09:21.456Z,13.27
2022-12-03T09:11:48.007Z,13.87
2022-12-03T09:14:18.548Z,13.27
2022-12-03T09:16:45.781Z,15.37
2022-12-03T09:19:12.371Z,15.30
2022-12-03T09:21:38.899Z,14.80
2022-12-03T09:24:05.738Z,15.33
2022-12-03T09:26:32.332Z,13.77
2022-12-03T09:28:58.862Z,14.60
2022-12-03T09:31:25.507Z,14.23
2022-12-03T09:33:52.218Z,12.83
2022-12-03T09:36:18.783Z,11.97
2022-12-03T09:38:47.855Z,13.43
2022-12-03T09:41:14.832Z,14.43
2022-12-03T09:44:03.177Z,17.93
2022-12-03T09:46:30.197Z,14.20
2022-12-03T09:48:57.128Z,13.60
2022-12-03T09:51:30.676Z,14.60
2022-12-03T09:53:59.764Z,19.37
2022-12-03T09:56:26.563Z,13.80
2022-12-03T09:58:53.176Z,12.77
2022-12-03T10:01:19.805Z,13.07
2022-12-03T10:03:50.438Z,13.63
2022-12-03T10:06:23.007Z,13.07
2022-12-03T10:08:53.502Z,13.07
2022-12-03T10:11:25.138Z,13.23
2022-12-03T10:13:54.855Z,13.37
2022-12-03T10:16:21.582Z,13.27
2022-12-03T10:18:54.357Z,14.77
2022-12-03T10:21:26.891Z,15.67
2022-12-03T10:24:20.326Z,14.27
2022-12-03T10:26:48.998Z,13.83
2022-12-03T10:29:21.856Z,13.47
2022-12-03T10:31:59.216Z,13.47
2022-12-03T10:34:34.284Z,13.77
2022-12-03T10:37:21.455Z,13.87
2022-12-03T10:40:01.385Z,15.20
2022-12-03T10:42:34.157Z,15.20
2022-12-03T10:45:18.165Z,15.33
2022-12-03T10:48:03.132Z,14.20
2022-12-03T10:50:29.980Z,18.53
2022-12-03T10:52:56.558Z,16.10
2022-12-03T10:55:23.759Z,16.10
2022-12-03T10:57:50.392Z,15.87
2022-12-03T11:00:19.329Z,15.00
2022-12-03T11:02:53.070Z,14.50
2022-12-03T11:05:29.203Z,15.07
2022-12-03T11:07:57.099Z,17.60
2022-12-03T11:10:24.287Z,13.63
2022-12-03T11:13:39.169Z,14.47
2022-12-03T11:16:08.172Z,14.90
2022-12-03T11:18:37.457Z,14.17
2022-12-03T11:21:08.536Z,13.47
2022-12-03T11:23:47.052Z,14.83
2022-12-03T11:26:36.445Z,15.53
2022-12-03T11:29:04.543Z,16.03
2022-12-03T11:31:36.901Z,14.33
2022-12-03T11:34:18.741Z,14.43
2022-12-03T11:37:21.731Z,15.47
2022-12-03T11:39:51.076Z,15.03
2022-12-03T11:42:26.899Z,14.70
2022-12-03T11:45:02.687Z,15.47
2022-12-03T11:48:30.139Z,14.67
2022-12-03T11:50:56.706Z,14.87
2022-12-03T11:53:31.148Z,15.50
2022-12-03T11:56:08.901Z,14.30
2022-12-03T11:58:38.660Z,14.37
2022-12-03T12:01:07.475Z,15.60
2022-12-03T12:03:51.961Z,15.50
2022-12-03T12:06:20.794Z,13.87
2022-12-03T12:08:56.261Z,15.77
2022-12-03T12:11:43.830Z,15.60
2022-12-03T12:14:12.477Z,15.43
2022-12-03T12:16:51.358Z,16.40
2022-12-03T12:19:54.062Z,16.03
2022-12-03T12:22:31.028Z,16.70
2022-12-03T12:25:06.874Z,15.33
2022-12-03T12:27:34.994Z,16.07
2022-12-03T12:30:17.918Z,15.13
2022-12-03T12:32:47.614Z,14.10
2022-12-03T12:35:23.024Z,15.70
2022-12-03T12:37:58.466Z,16.37
2022-12-03T12:40:29.289Z,16.27
2022-12-03T12:43:29.583Z,16.07
2022-12-03T12:46:13.493Z,15.80
2022-12-03T12:48:46.905Z,16.27
2022-12-03T12:51:18.816Z,15.47
2022-12-03T12:53:46.456Z,15.57
2022-12-03T12:56:31.921Z,15.97
2022-12-03T12:59:16.419Z,15.67
2022-12-03T13:01:44.832Z,20.77
2022-12-03T13:04:14.657Z,15.37
2022-12-03T13:06:42.130Z,17.33
2022-12-03T13:09:17.801Z,14.37
2022-12-03T13:11:47.251Z,12.03
2022-12-03T13:14:35.115Z,14.77
2022-12-03T13:17:10.905Z,15.10
2022-12-03T13:19:47.604Z,15.57
2022-12-03T13:22:21.761Z,15.77
2022-12-03T13:24:51.076Z,16.20
2022-12-03T13:27:17.684Z,13.70
2022-12-03T13:29:46.341Z,16.17
2022-12-03T13:32:21.876Z,14.03
2022-12-03T13:34:50.543Z,22.43
2022-12-03T13:37:23.194Z,14.30
2022-12-03T13:39:53.415Z,16.10
2022-12-03T13:42:38.535Z,15.90
2022-12-03T13:45:45.535Z,12.57
2022-12-03T13:48:18.252Z,12.60
2022-12-03T13:50:46.156Z,13.33
2022-12-03T13:53:27.094Z,13.97
2022-12-03T13:56:26.014Z,13.70
2022-12-03T13:58:52.530Z,14.80
2022-12-03T14:01:19.114Z,14.33
2022-12-03T14:03:45.669Z,14.23
2022-12-03T14:06:12.202Z,14.67
2022-12-03T14:08:38.818Z,16.30
2022-12-03T14:11:05.536Z,14.63
2022-12-03T14:13:32.076Z,16.90
2022-12-03T14:15:58.720Z,15.50
2022-12-03T14:18:25.490Z,15.33
2022-12-03T14:20:52.148Z,15.67
2022-12-03T14:23:18.728Z,17.20
2022-12-03T14:25:45.259Z,13.47
2022-12-03T14:28:12.013Z,14.27
2022-12-03T14:30:38.606Z,13.87
2022-12-03T14:33:05.181Z,12.93
2022-12-03T14:35:31.706Z,13.13
2022-12-03T14:37:58.265Z,14.23
2022-12-03T14:40:24.805Z,14.33
2022-12-03T14:42:51.452Z,16.87
2022-12-03T14:45:17.967Z,17.67
2022-12-03T14:47:44.520Z,17.03
2022-12-03T14:50:14.627Z,16.20
2022-12-03T14:52:41.521Z,13.27
2022-12-03T14:55:08.552Z,13.37
2022-12-03T14:57:35.127Z,12.10
2022-12-03T15:00:01.704Z,12.30
2022-12-03T15:02:28.940Z,13.37
2022-12-03T15:04:55.573Z,12.93
2022-12-03T15:07:22.231Z,12.83
2022-12-03T15:09:49.240Z,13.83
2022-12-03T15:12:15.783Z,12.70
2022-12-03T15:14:42.751Z,14.03
2022-12-03T15:17:09.418Z,13.77
2022-12-03T15:19:36.159Z,15.17
2022-12-03T15:22:02.757Z,14.50
2022-12-03T15:24:29.376Z,15.83
2022-12-03T15:26:56.124Z,14.27
2022-12-03T15:29:23.610Z,14.50
2022-12-03T15:31:53.082Z,14.30
2022-12-03T15:34:22.761Z,16.27
2022-12-03T15:36:49.765Z,15.57
2022-12-03T15:39:16.301Z,14.20
2022-12-03T15:41:42.922Z,14.33
2022-12-03T15:44:09.496Z,14.00
2022-12-03T15:46:36.189Z,13.93
2022-12-03T15:49:02.804Z,17.00
2022-12-03T15:51:29.305Z,15.43
2022-12-03T15:53:55.871Z,15.50
2022-12-03T15:56:22.489Z,14.17
2022-12-03T15:58:49.073Z,15.73
2022-12-03T16:01:18.216Z,16.50
2022-12-03T16:03:45.147Z,15.83
2022-12-03T16:06:12.635Z,14.77
2022-12-03T16:08:39.223Z,14.70
2022-12-03T16:11:06.032Z,15.20
2022-12-03T16:13:32.557Z,13.23
2022-12-03T16:15:59.211Z,14.17
2022-12-03T16:18:25.883Z,14.83
2022-12-03T16:20:52.470Z,14.63
2022-12-03T16:23:18.990Z,14.77
2022-12-03T16:25:45.533Z,17.20
2022-12-03T16:28:12.105Z,14.33
2022-12-03T16:30:38.801Z,14.43
2022-12-03T16:33:05.419Z,13.77
2022-12-03T16:35:31.992Z,14.97
2022-12-03T16:37:58.498Z,14.27
2022-12-03T16:40:25.390Z,14.30
2022-12-03T16:42:51.932Z,14.47
2022-12-03T16:45:22.557Z,15.27
2022-12-03T16:47:49.925Z,19.40
2022-12-03T16:50:24.375Z,23.90
2022-12-03T16:52:54.316Z,16.03
2022-12-03T16:55:20.874Z,17.47
2022-12-03T16:57:47.450Z,15.77
2022-12-03T17:00:14.592Z,15.50
2022-12-03T17:02:41.233Z,14.67
2022-12-03T17:05:08.182Z,12.83
2022-12-03T17:07:34.747Z,14.33
2022-12-03T17:10:01.454Z,15.67
2022-12-03T17:12:42.101Z,16.03
2022-12-03T17:15:14.729Z,15.23
2022-12-03T17:17:41.276Z,16.63
2022-12-03T17:20:08.697Z,15.93
2022-12-03T17:22:35.284Z,16.17
2022-12-03T17:25:02.027Z,17.13
2022-12-03T17:27:29.580Z,14.97
2022-12-03T17:29:56.306Z,15.97
2022-12-03T17:32:22.896Z,15.73
2022-12-03T17:34:49.671Z,14.77
2022-12-03T17:37:16.266Z,14.57
2022-12-03T17:39:42.837Z,16.00
2022-12-03T17:42:09.394Z,14.87
2022-12-03T17:44:35.969Z,15.53
2022-12-03T17:47:02.722Z,14.97
2022-12-03T17:49:31.683Z,15.67
2022-12-03T17:51:58.526Z,14.87
2022-12-03T17:54:37.963Z,16.93
2022-12-03T17:57:11.707Z,15.13
2022-12-03T17:59:38.246Z,16.17
2022-12-03T18:02:04.920Z,16.30
2022-12-03T18:04:31.666Z,15.13
2022-12-03T18:07:02.153Z,16.70
2022-12-03T18:09:29.105Z,17.77
2022-12-03T18:11:55.739Z,15.87
2022-12-03T18:14:22.293Z,16.60
2022-12-03T18:16:48.910Z,16.23
2022-12-03T18:19:15.569Z,15.87
2022-12-03T18:21:42.503Z,16.43
2022-12-03T18:24:09.274Z,15.97
2022-12-03T18:26:36.046Z,15.90
2022-12-03T18:29:02.648Z,21.00
2022-12-03T18:31:29.242Z,16.90
2022-12-03T18:33:55.883Z,17.57
2022-12-03T18:36:25.442Z,18.83
2022-12-03T18:38:55.241Z,19.23
2022-12-03T18:41:24.154Z,19.20
2022-12-03T18:43:50.931Z,19.03
2022-12-03T18:46:45.234Z,18.03
2022-12-03T18:49:05.628Z,19.00
2022-12-03T18:51:32.193Z,18.37
2022-12-03T18:53:58.699Z,17.10
2022-12-03T18:56:25.751Z,18.83
2022-12-03T18:58:52.277Z,17.23
2022-12-03T19:01:23.039Z,17.53
2022-12-03T19:03:49.942Z,17.90
2022-12-03T19:06:19.245Z,18.27
2022-12-03T19:08:48.635Z,18.10
2022-12-03T19:11:15.857Z,17.93
2022-12-03T19:13:42.693Z,19.03
2022-12-03T19:16:12.221Z,20.43
2022-12-03T19:18:39.656Z,18.10
2022-12-03T19:21:10.978Z,19.37
2022-12-03T19:23:38.012Z,19.50
2022-12-03T19:26:07.189Z,20.13
2022-12-03T19:28:34.601Z,18.63
2022-12-03T19:31:18.287Z,19.00
2022-12-03T19:33:45.432Z,18.37
2022-12-03T19:36:25.136Z,16.60
2022-12-03T19:38:56.840Z,17.77
2022-12-03T19:41:26.759Z,16.77
2022-12-03T19:43:55.682Z,17.73
2022-12-03T19:46:24.227Z,18.83
2022-12-03T19:48:51.215Z,17.93
2022-12-03T19:51:33.518Z,17.70
2022-12-03T19:54:01.181Z,16.90
2022-12-03T19:56:30.233Z,15.90
2022-12-03T19:58:57.408Z,17.70
2022-12-03T20:01:27.231Z,19.40
2022-12-03T20:03:56.532Z,18.90
2022-12-03T20:06:25.652Z,19.93
2022-12-03T20:08:57.837Z,19.87
2022-12-03T20:11:27.118Z,19.83
2022-12-03T20:13:56.610Z,17.07
2022-12-03T20:16:24.325Z,17.07
2022-12-03T20:18:51.803Z,17.57
2022-12-03T20:21:19.379Z,17.00
2022-12-03T20:23:46.762Z,19.13
2022-12-03T20:26:16.808Z,17.47
2022-12-03T20:28:43.779Z,17.57
2022-12-03T20:31:15.919Z,17.30
2022-12-03T20:33:45.609Z,18.00
2022-12-03T20:36:14.310Z,18.80
2022-12-03T20:38:41.827Z,17.40
2022-12-03T20:41:18.699Z,19.17
2022-12-03T20:43:45.842Z,19.27
2022-12-03T20:46:14.836Z,18.93
2022-12-03T20:48:42.914Z,19.27
2022-12-03T20:51:14.501Z,17.93
2022-12-03T20:53:41.977Z,18.87
2022-12-03T20:56:09.723Z,18.87
2022-12-03T20:58:36.605Z,20.47
2022-12-03T21:01:15.928Z,18.80
2022-12-03T21:03:43.595Z,17.73
2022-12-03T21:06:10.334Z,18.73
2022-12-03T21:08:41.455Z,17.70
2022-12-03T21:11:20.672Z,17.63
2022-12-03T21:13:47.997Z,16.97
2022-12-03T21:16:17.922Z,19.17
2022-12-03T21:18:45.283Z,17.43
2022-12-03T21:21:14.152Z,19.70
2022-12-03T21:23:41.679Z,17.33
2022-12-03T21:26:16.923Z,18.10
2022-12-03T21:28:45.559Z,17.17
2022-12-03T21:31:15.214Z,18.50
2022-12-03T21:33:41.885Z,15.63
2022-12-03T21:36:10.243Z,18.43
2022-12-03T21:38:37.858Z,18.87
2022-12-03T21:41:04.941Z,19.83
2022-12-03T21:43:32.539Z,19.87
2022-12-03T21:45:59.750Z,19.87
2022-12-03T21:48:26.418Z,17.53
2022-12-03T21:51:03.635Z,18.40
2022-12-03T21:53:32.211Z,18.17
2022-12-03T21:55:59.280Z,17.07
2022-12-03T21:58:25.851Z,18.90
2022-12-03T22:00:52.690Z,17.70
2022-12-03T22:03:19.245Z,20.20
2022-12-03T22:05:45.854Z,20.47
2022-12-03T22:08:13.878Z,19.57
2022-12-03T22:10:40.800Z,17.47
2022-12-03T22:13:07.476Z,17.33
2022-12-03T22:15:34.274Z,17.80
2022-12-03T22:18:00.851Z,16.87
2022-12-03T22:20:27.434Z,17.80
2022-12-03T22:22:53.998Z,22.50
2022-12-03T22:25:20.505Z,19.47
2022-12-03T22:27:47.093Z,17.53
2022-12-03T22:30:13.757Z,18.77
2022-12-03T22:32:40.287Z,19.40
2022-12-03T22:35:07.159Z,20.40
2022-12-03T22:37:33.749Z,18.60
2022-12-03T22:40:00.361Z,17.57
2022-12-03T22:42:26.992Z,17.17
2022-12-03T22:44:53.514Z,22.27
2022-12-03T22:47:20.020Z,18.43
2022-12-03T22:49:46.628Z,16.20
2022-12-03T22:52:13.153Z,18.23
2022-12-03T22:54:39.783Z,18.67
2022-12-03T22:57:06.287Z,23.03
2022-12-03T22:59:32.801Z,19.97
2022-12-03T23:01:59.330Z,18.20
2022-12-03T23:04:25.991Z,18.43
2022-12-03T23:06:52.532Z,19.17
2022-12-03T23:09:19.100Z,18.37
2022-12-03T23:11:45.931Z,17.90
2022-12-03T23:14:13.066Z,18.40
2022-12-03T23:16:40.523Z,17.23
2022-12-03T23:19:07.686Z,18.67
2022-12-03T23:21:35.489Z,17.93
2022-12-03T23:24:03.925Z,16.83
2022-12-03T23:26:33.176Z,17.57
2022-12-03T23:28:59.787Z,17.33
2022-12-03T23:31:29.825Z,17.00
2022-12-03T23:33:58.251Z,18.97
2022-12-03T23:36:26.928Z,17.07
2022-12-03T23:38:54.085Z,17.73
2022-12-03T23:41:23.122Z,16.73
2022-12-03T23:43:49.829Z,17.60
2022-12-03T23:46:19.714Z,17.53
2022-12-03T23:48:46.666Z,17.90
2022-12-03T23:51:16.347Z,19.27
2022-12-03T23:53:42.922Z,18.67
2022-12-03T23:56:20.953Z,18.43
2022-12-03T23:58:47.944Z,17.57
